Дата Пункты Температура Давл., мм. Влажн., % Ветер Погодные явления
Воздуха Воды Направл. Скорость
11.11.18 08:00 Одесса 7.0 12.0 766 90 С 5 08 ГОДИН
11.11.18 05:00 Одесса 8.0 12.0 765 91 С 5 05 ГОДИН
11.11.18 02:00 Одесса 9.0 12.0 764 94 С 6 02 ГОДИНИ
10.11.18 11:00 Одесса 10.0 12.0 764 80 С 5 23 ГОДИНИ
10.11.18 08:00 Одесса 10.0 12.0 764 75 С 3 20 ГОДИН
10.11.18 05:00 Одесса 10.0 11.0 763 72 С 2 17 ГОДИН
10.11.18 02:00 Одесса 11.0 11.0 763 72 С 2 14 ГОДИН
10.11.18 11:00 Одесса 9.0 12.0 764 81 Пн 1 11 ГОДИН
10.11.18 08:00 Одесса 5.0 12.0 764 96 Пн 1 08 ГОДИН
10.11.18 05:00 Одесса 4.0 12.0 764 94 Пн 0 05 ГОДИН
10.11.18 02:00 Одесса 4.0 12.0 764 92 Пн 0 02 ГОДИНИ
09.11.18 11:00 Одесса 6.0 12.0 764 92 Пн 0 23 ГОДИНИ
09.11.18 08:00 Одесса 5.0 12.0 764 90 Пн 0 20 ГОДИН
09.11.18 05:00 Одесса 7.0 12.0 764 82 Пн 0 17 ГОДИН
09.11.18 02:00 Одесса 11.0 12.0 764 68 С 1 14 ГОДИН
09.11.18 11:00 Одесса 9.0 12.0 765 77 Пн 1 11 ГОДИН
09.11.18 08:00 Одесса 5.0 12.0 765 93 Пн 1 08 ГОДИН
09.11.18 05:00 Одесса 5.0 12.0 764 93 Пн 1 05 ГОДИН
09.11.18 02:00 Одесса 7.0 12.0 764 90 Пн 1 02 ГОДИНИ
08.11.18 11:00 Одесса 10.0 12.0 765 80 С 4 23 ГОДИНИ
Количество строк
1 2 3 4 5 6 7 8 9 10
Page 3 of 426